Domov               UVHVVR             MKGP            O straneh              
ZDRAVSTVENO VARSTVO RASTLIN
  MREŽA AGROMET. POSTAJ
 ► PROGNOSTIČNA OBVESTILA
AGROMETEOROLOŠKI PODATKI -
ARSO
OBVLADOVANJE TVEGANJ ZARADI
NEUGODNIH VREMENSKIH RAZMER
  ► NARAVNE NESREČE
  ► SUŠA/MOČA
  ► NAMAKANJE
  ► ŽLED (gozdarstvo)
KARTOGRAFSKI PRIKAZI
SPLETNE POVEZAVE
PROJEKTI IN PUBLIKACIJE

AGROMETEOROLOŠKA MREŽA: VREMENSKE POSTAJE IN FENOLOŠKA OPAZOVANJA

Pregled podatkov za lokacijo Parižlje, meteorološka postaja 24303

Pregled senzorjev na lokaciji

ID Ime Zadnja
vrednost
Datum
zadnje
spremembe
Tip
senzorja
1493 Temperatura 2 m ( °C) 8,28 °C 21.10.2017 00:30 Generic -40 - +60 °C
1494 Relativna vlaga 2 m (% RH) 92,7 % RH 21.10.2017 00:30 Generic 0 - 100 %
1495 Omočenost lista (U) 10 U 21.10.2017 00:30 A730WET
1496 Padavine 0.2 mm (mm) 0 mm 21.10.2017 00:30
2139 Sončno sevanje (W/m2) 0 W/m2 21.10.2017 00:30 MS-020VM 1400 W/m²

Pregled podatkov zadnjih 24 ur

Zap.
št.
Datum in čas Parižlje
Omočenost
lista
Padavine
0.2
mm
Relativna
vlaga
2
m
Sončno
sevanje
Temperatura
2
m
0 20.10.2017 23:30 10 0 92,7 0 8,28
1 20.10.2017 23:00 10 0 93,63 0 7,96
2 20.10.2017 22:30 9 0 92,26 0 8,69
3 20.10.2017 22:00 1 0 91,33 0 9,55
4 20.10.2017 21:30 0 0 84,4 0 10,74
5 20.10.2017 21:00 0 0 75,51 0 12,53
6 20.10.2017 20:30 0 0 74,9 0 12,72
7 20.10.2017 20:00 0 0 75,02 0 13,04
8 20.10.2017 19:30 0 0 74,6 0 13,09
9 20.10.2017 19:00 0 0 73,04 0 13,46
10 20.10.2017 18:30 0 0 72,19 0 13,87
11 20.10.2017 18:00 0 0 71,21 0 14,26
12 20.10.2017 17:30 0 0 68,74 0,34 14,73
13 20.10.2017 17:00 0 0 67,91 8,89 15,51
14 20.10.2017 16:30 0 0 65,08 29,4 16,61
15 20.10.2017 16:00 0 0 61,88 59,15 17,66
16 20.10.2017 15:30 0 0 58,05 91,28 18,53
17 20.10.2017 15:00 0 0 54,43 123,42 19,32
18 20.10.2017 14:30 0 0 50,45 152,82 19,93
19 20.10.2017 14:00 0 0 48,3 178,8 19,98
20 20.10.2017 13:30 0 0 47,99 201,37 19,95
21 20.10.2017 13:00 0 0 47,69 219,15 20,2
22 20.10.2017 12:30 0 0 47,81 230,77 19,9
23 20.10.2017 12:00 0 0 46,96 235,9 19,78
24 20.10.2017 11:30 0 0 48,16 235,21 19,68
25 20.10.2017 11:00 0 0 46,4 226,32 19,22
26 20.10.2017 10:30 0 0 51,23 210,26 18
27 20.10.2017 10:00 0 0 53,33 188,03 16,19
28 20.10.2017 09:30 0 0 63,66 164,1 14,26
29 20.10.2017 09:00 0 0 67,28 135,73 13,11
30 20.10.2017 08:30 1 0 70,26 97,78 11,6
31 20.10.2017 08:00 10 0 80,61 27,35 9,18
32 20.10.2017 07:30 10 0 84,71 19,49 7,52
33 20.10.2017 07:00 10 0 88,82 9,23 6,37
34 20.10.2017 06:30 10 0 88,74 0,68 6,18
35 20.10.2017 06:00 10 0 90,31 0 6,11
36 20.10.2017 05:30 10 0 90,35 0 6,35
37 20.10.2017 05:00 10 0 88,82 0 6,64
38 20.10.2017 04:30 10 0 88,38 0 6,81
39 20.10.2017 04:00 9 0 88,42 0 6,96
40 20.10.2017 03:30 6 0 89,82 0 6,84
41 20.10.2017 03:00 2 0 88,6 0 7,03
42 20.10.2017 02:30 2 0 89,01 0 7,5
43 20.10.2017 02:00 2 0 88,3 0 7,62
44 20.10.2017 01:30 2 0 88,16 0 7,74
© 2011 Ministrstvo za kmetijstvo, gozdarstvo in prehrano. Vse pravice pridržane.